Sullivan, IL (61951)

3:37 AM CDT on March 31, 2015 (GMT -0500)
West Okaw River Valley | | Change Station
CLOSE
Current Station
Personal Weather Station
Location: Sullivan, IL
Elevation: 656 ft
Nearby Weather Stations

Elev 656 ft 39.60 °N, 88.71 °W | Updated 22 seconds ago

Clear
Clear
50.2 °F
Feels Like 50.2 °F
N
10.0
Wind Variable Wind from SSW
Gusts 12.0 mph

Today
High -- | Low -- °F
--% Chance of Precip.
Yesterday
High -- | Low -- °F
Precip. -- in
6:40 AM 7:17 PM
Waxing Gibbous, 85% visible
Pressure 29.86 in
Visibility 10.0 miles
Clouds Clear
Dew Point 42 °F
Humidity 72%
Rainfall 0.00 in
Snow Depth Not available.
UV 0 out of 12
Pollen 10.50 out of 12
Air Quality Not available.
Flu Activity Not available.
METAR KMTO 310753Z AUTO 21010KT 10SM CLR 09/03 A2985 RMK AO2 SLP109 T00940028 $

More Conditions Fewer Conditions

Pressure 29.86 in
Visibility 10.0 miles
Clouds Clear
Dew Point 42 °F
Humidity 72%
Rainfall 0.00 in
Snow Depth Not available.
UV 0 out of 12
Pollen 10.50 out of 12
Air Quality Not available.
Flu Activity Not available.
METAR KMTO 310753Z AUTO 21010KT 10SM CLR 09/03 A2985 RMK AO2 SLP109 T00940028 $

More Conditions Fewer Conditions

10-Day Weather Forecast

Almanac

Astronomy

Mar. 31, 2015 Rise Set
Actual Time
Civil Twilight
Nautical Twilight
Astronomical Twilight
Moon
Length of Visible Light
Length of Day
Tomorrow will be .
, % of the Moon is Illuminated

Today's Extremes

State Highs State Lows

Community

WunderPhotos

Upload Photos

1,809,732 photos uploaded!

WunderBlogs® & News

Nearby

Air Quality

  Air Quality AQ Index Pollutant
Not available.

Snow Depth

Station Depth Elevation

Earthquake Activity

City Distance Mag. Time & Date
Minimum magnitude displayed is 2.5.

Coastal Water Temperatures

Place Temperature

Stations

Nearby Weather Stations

Station Location Temp. Windchill Dew Point Humidity Wind Precip. Elev Updated Type